createdAt,value
2023-10-13T00:01:14.896Z,3.28
2023-10-13T00:03:43.813Z,2.70
2023-10-13T00:06:13.470Z,3.20
2023-10-13T00:08:42.916Z,2.97
2023-10-13T00:11:16.110Z,3.40
2023-10-13T00:13:51.537Z,2.80
2023-10-13T00:16:22.853Z,2.83
2023-10-13T00:18:55.987Z,3.33
2023-10-13T00:21:32.637Z,3.55
2023-10-13T00:24:02.761Z,2.60
2023-10-13T00:26:35.840Z,3.97
2023-10-13T00:29:17.194Z,2.88
2023-10-13T00:31:46.036Z,3.17
2023-10-13T00:34:21.619Z,2.50
2023-10-13T00:37:11.592Z,2.63
2023-10-13T00:39:45.635Z,2.80
2023-10-13T00:42:21.598Z,3.20
2023-10-13T00:44:50.216Z,2.53
2023-10-13T00:47:34.338Z,3.25
2023-10-13T00:50:02.181Z,3.10
2023-10-13T00:52:31.082Z,3.60
2023-10-13T00:55:01.765Z,3.92
2023-10-13T00:57:31.864Z,2.83
2023-10-13T01:00:18.771Z,3.33
2023-10-13T01:02:46.698Z,3.25
2023-10-13T01:05:21.111Z,3.90
2023-10-13T01:07:53.892Z,3.45
2023-10-13T01:10:27.267Z,3.60
2023-10-13T01:12:56.640Z,4.18
2023-10-13T01:15:31.294Z,3.63
2023-10-13T01:18:12.271Z,3.83
2023-10-13T01:20:46.887Z,3.75
2023-10-13T01:23:19.902Z,3.33
2023-10-13T01:25:50.237Z,3.50
2023-10-13T01:28:18.490Z,3.25
2023-10-13T01:30:51.496Z,3.30
2023-10-13T01:33:28.134Z,3.67
2023-10-13T01:35:59.976Z,2.80
2023-10-13T01:38:30.035Z,3.55
2023-10-13T01:41:00.186Z,3.33
2023-10-13T01:43:28.939Z,3.55
2023-10-13T01:45:56.726Z,3.13
2023-10-13T01:48:25.371Z,3.25
2023-10-13T01:50:57.522Z,4.03
2023-10-13T01:53:26.305Z,3.28
2023-10-13T01:55:58.154Z,3.33
2023-10-13T01:58:30.177Z,3.80
2023-10-13T02:01:00.906Z,3.38
2023-10-13T02:03:31.281Z,4.07
2023-10-13T02:06:05.524Z,3.25
2023-10-13T02:08:33.127Z,2.97
2023-10-13T02:11:08.252Z,4.18
2023-10-13T02:13:42.480Z,4.05
2023-10-13T02:16:13.117Z,3.67
2023-10-13T02:18:44.363Z,3.47
2023-10-13T02:21:16.020Z,3.50
2023-10-13T02:23:46.492Z,3.70
2023-10-13T02:26:17.018Z,3.30
2023-10-13T02:28:45.544Z,3.15
2023-10-13T02:31:14.554Z,4.00
2023-10-13T02:33:46.310Z,3.67
2023-10-13T02:36:20.682Z,3.75
2023-10-13T02:38:48.358Z,4.65
2023-10-13T02:41:26.811Z,5.57
2023-10-13T02:43:55.217Z,5.88
2023-10-13T02:46:24.249Z,9.57
2023-10-13T02:48:54.390Z,14.20
2023-10-13T02:51:31.880Z,15.95
2023-10-13T02:54:04.435Z,16.85
2023-10-13T02:56:34.417Z,17.50
2023-10-13T02:59:06.228Z,19.88
2023-10-13T03:01:36.241Z,20.48
2023-10-13T03:04:04.527Z,21.08
2023-10-13T03:06:35.903Z,21.48
2023-10-13T03:09:15.822Z,21.60
2023-10-13T03:11:49.538Z,21.02
2023-10-13T03:14:25.751Z,18.60
2023-10-13T03:16:55.014Z,18.35
2023-10-13T03:19:23.776Z,19.58
2023-10-13T03:21:58.629Z,22.55
2023-10-13T03:24:34.725Z,20.10
2023-10-13T03:27:10.394Z,21.17
2023-10-13T03:29:38.332Z,22.00
2023-10-13T03:32:12.914Z,20.95
2023-10-13T03:34:50.871Z,21.63
2023-10-13T03:37:36.551Z,20.92
2023-10-13T03:40:08.127Z,20.35
2023-10-13T03:42:41.273Z,20.00
2023-10-13T03:45:12.096Z,19.00
2023-10-13T03:47:43.859Z,19.25
2023-10-13T03:50:30.499Z,16.95
2023-10-13T03:52:59.412Z,16.60
2023-10-13T03:55:29.610Z,15.63
2023-10-13T03:58:01.331Z,14.85
2023-10-13T04:00:29.960Z,12.30
2023-10-13T04:03:10.423Z,12.50
2023-10-13T04:05:48.228Z,11.30
2023-10-13T04:08:35.292Z,12.32
2023-10-13T04:11:20.835Z,11.45
2023-10-13T04:14:19.896Z,11.20
2023-10-13T04:17:00.870Z,9.77
2023-10-13T04:19:38.064Z,10.35
2023-10-13T04:22:15.671Z,10.02
2023-10-13T04:25:01.750Z,9.60
2023-10-13T04:27:54.689Z,9.57
2023-10-13T04:30:28.849Z,9.25
2023-10-13T04:33:18.684Z,9.48
2023-10-13T04:35:59.185Z,9.48
2023-10-13T04:38:35.198Z,9.68
2023-10-13T04:41:11.381Z,10.27
2023-10-13T04:43:57.041Z,9.45
2023-10-13T04:46:36.931Z,10.05
2023-10-13T04:49:28.527Z,11.52
2023-10-13T04:52:00.426Z,10.57
2023-10-13T04:54:34.932Z,10.73
2023-10-13T04:57:21.458Z,10.65
2023-10-13T05:00:13.297Z,11.15
2023-10-13T05:03:13.493Z,10.27
2023-10-13T05:06:08.815Z,10.75
2023-10-13T05:08:55.197Z,9.90
2023-10-13T05:11:41.625Z,10.43
2023-10-13T05:14:30.409Z,10.18
2023-10-13T05:17:16.848Z,10.35
2023-10-13T05:20:04.676Z,10.63
2023-10-13T05:22:50.997Z,9.75
2023-10-13T05:25:40.204Z,10.70
2023-10-13T05:28:35.506Z,10.27
2023-10-13T05:31:23.179Z,10.43
2023-10-13T05:34:09.714Z,10.45
2023-10-13T05:36:58.075Z,10.38
2023-10-13T05:39:45.791Z,10.68
2023-10-13T05:42:31.945Z,12.98
2023-10-13T05:45:25.104Z,13.85
2023-10-13T05:48:12.738Z,12.05
2023-10-13T05:51:12.000Z,12.18
2023-10-13T05:53:59.410Z,11.38
2023-10-13T05:56:45.710Z,12.98
2023-10-13T05:59:31.890Z,12.68
2023-10-13T06:02:18.801Z,11.82
2023-10-13T06:05:07.719Z,11.13
2023-10-13T06:07:53.811Z,10.55
2023-10-13T06:10:41.715Z,11.43
2023-10-13T06:13:31.982Z,12.00
2023-10-13T06:16:18.135Z,11.50
2023-10-13T06:19:04.542Z,9.63
2023-10-13T06:21:50.877Z,9.82
2023-10-13T06:24:37.129Z,7.93
2023-10-13T06:27:25.892Z,9.27
2023-10-13T06:29:55.111Z,8.13
2023-10-13T06:32:27.312Z,8.07
2023-10-13T06:34:59.082Z,7.65
2023-10-13T06:37:31.507Z,7.93
2023-10-13T06:40:07.357Z,6.13
2023-10-13T06:42:43.384Z,6.88
2023-10-13T06:45:13.039Z,6.65
2023-10-13T06:47:44.037Z,6.75
2023-10-13T06:50:16.824Z,6.57
2023-10-13T06:52:45.421Z,6.03
2023-10-13T06:55:18.330Z,6.60
2023-10-13T06:57:50.353Z,6.10
2023-10-13T07:00:29.316Z,5.82
2023-10-13T07:03:07.535Z,6.07
2023-10-13T07:05:39.200Z,5.30
2023-10-13T07:08:09.571Z,5.25
2023-10-13T07:10:49.135Z,5.30
2023-10-13T07:13:20.721Z,5.57
2023-10-13T07:15:49.301Z,5.40
2023-10-13T07:18:18.734Z,5.10
2023-10-13T07:20:47.234Z,4.93
2023-10-13T07:23:21.152Z,5.28
2023-10-13T07:25:56.790Z,5.28
2023-10-13T07:28:27.651Z,6.18
2023-10-13T07:31:09.892Z,4.95
2023-10-13T07:33:38.269Z,4.65
2023-10-13T07:36:17.110Z,3.53
2023-10-13T07:38:58.811Z,5.35
2023-10-13T07:41:37.494Z,4.60
2023-10-13T07:44:08.403Z,4.57
2023-10-13T07:46:37.111Z,4.63
2023-10-13T07:49:12.002Z,4.63
2023-10-13T07:51:45.469Z,4.70
2023-10-13T07:54:22.993Z,4.45
2023-10-13T07:56:52.017Z,4.50
2023-10-13T07:59:25.001Z,4.40
2023-10-13T08:02:07.355Z,4.35
2023-10-13T08:04:36.601Z,4.18
2023-10-13T08:07:13.909Z,4.60
2023-10-13T08:09:44.699Z,4.80
2023-10-13T08:12:14.076Z,4.43
2023-10-13T08:14:45.459Z,4.07
2023-10-13T08:17:16.328Z,3.72
2023-10-13T08:19:47.668Z,4.20
2023-10-13T08:22:24.968Z,4.47
2023-10-13T08:25:18.158Z,4.22
2023-10-13T08:28:06.305Z,3.72
2023-10-13T08:30:53.543Z,3.10
2023-10-13T08:33:26.139Z,3.85
2023-10-13T08:36:07.065Z,3.10
2023-10-13T08:38:52.378Z,3.95
2023-10-13T08:41:32.780Z,4.68
2023-10-13T08:44:10.341Z,4.38
2023-10-13T08:46:58.517Z,4.05
2023-10-13T08:49:30.699Z,4.72
2023-10-13T08:52:27.587Z,4.43
2023-10-13T08:55:27.592Z,3.95
2023-10-13T08:58:03.755Z,4.07
2023-10-13T09:00:48.859Z,4.53
2023-10-13T09:03:40.605Z,4.75
2023-10-13T09:06:15.907Z,4.07
2023-10-13T09:09:05.480Z,5.38
2023-10-13T09:11:50.629Z,5.20
2023-10-13T09:14:36.893Z,4.75
2023-10-13T09:17:09.564Z,4.25
2023-10-13T09:19:57.652Z,4.90
2023-10-13T09:22:29.725Z,3.28
2023-10-13T09:25:00.515Z,3.42
2023-10-13T09:27:29.457Z,4.30
2023-10-13T09:29:59.106Z,4.70
2023-10-13T09:32:29.697Z,3.90
2023-10-13T09:35:06.636Z,4.18
2023-10-13T09:37:38.373Z,3.78
2023-10-13T09:40:26.207Z,4.63
2023-10-13T09:42:56.750Z,3.85
2023-10-13T09:45:30.289Z,4.63
2023-10-13T09:48:07.770Z,4.55
2023-10-13T09:50:45.217Z,4.35
2023-10-13T09:53:15.485Z,4.20
2023-10-13T09:55:47.108Z,3.85
2023-10-13T09:58:15.885Z,4.50
2023-10-13T10:00:50.974Z,4.65
2023-10-13T10:03:36.897Z,4.18
2023-10-13T10:06:07.543Z,4.38
2023-10-13T10:08:36.273Z,3.72
2023-10-13T10:11:46.702Z,4.10
2023-10-13T10:14:22.390Z,4.75
2023-10-13T10:17:08.951Z,4.40
2023-10-13T10:19:55.231Z,4.15
2023-10-13T10:22:34.828Z,4.65
2023-10-13T10:25:08.047Z,4.75
2023-10-13T10:27:36.976Z,3.67
2023-10-13T10:30:06.303Z,4.93
2023-10-13T10:32:36.400Z,4.78
2023-10-13T10:35:10.501Z,4.90
2023-10-13T10:37:54.103Z,5.53
2023-10-13T10:40:47.914Z,4.57
2023-10-13T10:43:32.649Z,4.40
2023-10-13T10:46:02.415Z,4.70
2023-10-13T10:48:39.477Z,4.63
2023-10-13T10:51:15.888Z,5.07
2023-10-13T10:53:45.783Z,5.20
2023-10-13T10:56:38.171Z,5.82
2023-10-13T10:59:10.415Z,4.88
2023-10-13T11:01:49.354Z,4.57
2023-10-13T11:04:20.402Z,5.05
2023-10-13T11:06:50.668Z,5.50
2023-10-13T11:09:33.208Z,5.38
2023-10-13T11:12:16.678Z,4.60
2023-10-13T11:14:49.057Z,5.50
2023-10-13T11:17:26.682Z,5.60
2023-10-13T11:19:56.429Z,5.15
2023-10-13T11:22:43.069Z,5.65
2023-10-13T11:25:13.284Z,5.05
2023-10-13T11:27:56.973Z,5.93
2023-10-13T11:30:32.969Z,4.97
2023-10-13T11:33:04.166Z,5.47
2023-10-13T11:35:50.310Z,6.03
2023-10-13T11:38:26.697Z,5.22
2023-10-13T11:41:17.870Z,5.20
2023-10-13T11:44:06.085Z,5.15
2023-10-13T11:46:51.782Z,5.22
2023-10-13T11:49:20.475Z,5.25
2023-10-13T11:51:50.273Z,4.80
2023-10-13T11:54:19.836Z,4.85
2023-10-13T11:56:51.141Z,4.55
2023-10-13T11:59:20.068Z,4.88
2023-10-13T12:02:06.391Z,5.10
2023-10-13T12:04:41.599Z,5.18
2023-10-13T12:07:22.998Z,5.10
2023-10-13T12:10:07.878Z,5.10
2023-10-13T12:12:44.289Z,5.30
2023-10-13T12:15:26.625Z,3.88
2023-10-13T12:17:59.388Z,4.05
2023-10-13T12:20:34.993Z,5.35
2023-10-13T12:23:16.603Z,4.78
2023-10-13T12:25:59.231Z,5.05
2023-10-13T12:28:30.105Z,5.15
2023-10-13T12:31:00.228Z,4.88
2023-10-13T12:33:38.053Z,4.60
2023-10-13T12:36:16.202Z,3.63
2023-10-13T12:39:07.782Z,3.92
2023-10-13T12:41:53.781Z,4.47
2023-10-13T12:44:41.047Z,4.22
2023-10-13T12:47:27.297Z,4.78
2023-10-13T12:50:09.698Z,4.82
2023-10-13T12:52:38.287Z,4.47
2023-10-13T12:55:11.301Z,3.92
2023-10-13T12:57:45.371Z,4.28
2023-10-13T13:00:34.357Z,4.30
2023-10-13T13:03:12.722Z,3.08
2023-10-13T13:05:46.097Z,4.07
2023-10-13T13:08:23.499Z,4.13
2023-10-13T13:10:52.822Z,3.95
2023-10-13T13:13:25.991Z,4.72
2023-10-13T13:15:56.104Z,4.78
2023-10-13T13:18:24.592Z,4.07
2023-10-13T13:20:56.152Z,5.32
2023-10-13T13:23:27.538Z,4.97
2023-10-13T13:25:58.224Z,3.92
2023-10-13T13:28:30.040Z,3.60
2023-10-13T13:31:00.310Z,3.90
2023-10-13T13:33:34.717Z,4.15
2023-10-13T13:36:05.542Z,3.53
2023-10-13T13:38:36.178Z,4.45
2023-10-13T13:41:10.643Z,3.80
2023-10-13T13:43:52.522Z,3.00
2023-10-13T13:46:26.337Z,3.70
2023-10-13T13:48:59.711Z,2.88
2023-10-13T13:51:29.044Z,3.10
2023-10-13T13:53:58.315Z,2.90
2023-10-13T13:56:28.658Z,3.50
2023-10-13T13:58:57.743Z,2.97
2023-10-13T14:01:27.914Z,3.30
2023-10-13T14:03:58.345Z,3.25
2023-10-13T14:06:28.953Z,2.60
2023-10-13T14:09:00.895Z,2.92
2023-10-13T14:11:50.136Z,3.78
2023-10-13T14:14:34.635Z,3.30
2023-10-13T14:17:08.304Z,2.58
2023-10-13T14:19:41.927Z,3.47
2023-10-13T14:22:13.959Z,2.60
2023-10-13T14:24:48.837Z,3.00
2023-10-13T14:27:20.776Z,3.58
2023-10-13T14:29:51.017Z,2.88
2023-10-13T14:32:25.670Z,4.50
2023-10-13T14:34:58.238Z,3.53
2023-10-13T14:37:32.231Z,5.40
2023-10-13T14:40:02.210Z,4.13
2023-10-13T14:42:37.033Z,4.13
2023-10-13T14:45:13.557Z,4.10
2023-10-13T14:47:43.908Z,4.50
2023-10-13T14:50:20.897Z,3.78
2023-10-13T14:52:50.752Z,4.50
2023-10-13T14:55:22.973Z,4.13
2023-10-13T14:57:52.700Z,4.38
2023-10-13T15:00:26.987Z,3.95
2023-10-13T15:03:02.358Z,3.30
2023-10-13T15:05:32.708Z,4.28
2023-10-13T15:08:01.310Z,3.78
2023-10-13T15:10:29.749Z,4.70
2023-10-13T15:13:00.399Z,4.97
2023-10-13T15:15:33.394Z,4.82
2023-10-13T15:18:03.163Z,4.88
2023-10-13T15:20:31.542Z,3.65
2023-10-13T15:23:01.913Z,4.70
2023-10-13T15:25:40.526Z,4.80
2023-10-13T15:28:10.970Z,3.80
2023-10-13T15:30:53.490Z,4.05
2023-10-13T15:33:22.333Z,4.35
2023-10-13T15:35:52.737Z,4.32
2023-10-13T15:38:23.522Z,3.60
2023-10-13T15:40:56.272Z,3.97
2023-10-13T15:43:24.999Z,3.75
2023-10-13T15:45:53.425Z,4.35
2023-10-13T15:48:25.644Z,3.65
2023-10-13T15:50:54.671Z,4.50
2023-10-13T15:53:26.611Z,3.58
2023-10-13T15:55:55.121Z,4.30
2023-10-13T15:58:27.274Z,3.97
2023-10-13T16:00:57.131Z,4.28
2023-10-13T16:03:31.028Z,2.83
2023-10-13T16:06:01.155Z,4.22
2023-10-13T16:08:32.791Z,3.42
2023-10-13T16:11:08.279Z,4.78
2023-10-13T16:13:38.881Z,4.80
2023-10-13T16:16:07.787Z,4.80
2023-10-13T16:18:37.723Z,5.25
2023-10-13T16:21:06.124Z,5.20
2023-10-13T16:23:34.496Z,6.68
2023-10-13T16:26:08.706Z,6.25
2023-10-13T16:28:37.210Z,6.95
2023-10-13T16:31:06.560Z,6.25
2023-10-13T16:33:36.882Z,7.10
2023-10-13T16:36:09.881Z,8.25
2023-10-13T16:38:38.375Z,7.88
2023-10-13T16:41:10.025Z,6.40
2023-10-13T16:43:38.770Z,7.43
2023-10-13T16:46:13.773Z,7.22
2023-10-13T16:48:42.471Z,6.93
2023-10-13T16:51:14.249Z,8.10
2023-10-13T16:53:43.630Z,7.28
2023-10-13T16:56:12.152Z,7.70
2023-10-13T16:58:40.702Z,7.00
2023-10-13T17:01:12.693Z,8.20
2023-10-13T17:03:41.874Z,8.13
2023-10-13T17:06:11.939Z,7.63
2023-10-13T17:08:41.187Z,7.60
2023-10-13T17:11:12.220Z,7.88
2023-10-13T17:13:41.470Z,8.38
2023-10-13T17:16:15.193Z,7.88
2023-10-13T17:18:44.727Z,7.85
2023-10-13T17:21:18.742Z,9.23
2023-10-13T17:23:47.499Z,8.98
2023-10-13T17:26:16.140Z,9.85
2023-10-13T17:28:46.941Z,8.30
2023-10-13T17:31:15.473Z,9.02
2023-10-13T17:33:45.340Z,9.13
2023-10-13T17:36:13.942Z,8.23
2023-10-13T17:38:45.874Z,10.40
2023-10-13T17:41:17.101Z,10.75
2023-10-13T17:43:47.535Z,11.60
2023-10-13T17:46:16.462Z,12.57
2023-10-13T17:48:45.190Z,12.48
2023-10-13T17:51:14.600Z,13.13
2023-10-13T17:53:44.380Z,12.35
2023-10-13T17:56:14.227Z,12.90
2023-10-13T17:58:44.107Z,11.63
2023-10-13T18:01:19.787Z,11.77
2023-10-13T18:03:51.282Z,10.20
2023-10-13T18:06:21.367Z,11.10
2023-10-13T18:08:53.169Z,11.02
2023-10-13T18:11:25.418Z,9.30
2023-10-13T18:13:56.772Z,9.77
2023-10-13T18:16:26.733Z,8.23
2023-10-13T18:18:56.302Z,10.52
2023-10-13T18:21:25.680Z,9.10
2023-10-13T18:23:56.492Z,8.65
2023-10-13T18:26:25.135Z,9.70
2023-10-13T18:28:56.005Z,10.43
2023-10-13T18:31:25.010Z,10.45
2023-10-13T18:33:59.296Z,10.98
2023-10-13T18:36:30.710Z,11.98
2023-10-13T18:39:03.368Z,11.25
2023-10-13T18:41:32.309Z,12.52
2023-10-13T18:44:01.735Z,13.38
2023-10-13T18:46:30.532Z,12.45
2023-10-13T18:48:59.826Z,12.80
2023-10-13T18:51:28.382Z,13.70
2023-10-13T18:53:58.207Z,14.38
2023-10-13T18:56:29.641Z,13.95
2023-10-13T18:59:03.676Z,13.50
2023-10-13T19:01:35.854Z,13.75
2023-10-13T19:04:09.616Z,13.48
2023-10-13T19:06:38.081Z,11.85
2023-10-13T19:09:09.489Z,14.15
2023-10-13T19:11:41.089Z,12.68
2023-10-13T19:14:11.457Z,13.05
2023-10-13T19:16:43.383Z,12.65
2023-10-13T19:19:11.784Z,12.63
2023-10-13T19:21:41.293Z,10.40
2023-10-13T19:24:10.835Z,11.40
2023-10-13T19:26:44.939Z,12.13
2023-10-13T19:29:13.436Z,10.85
2023-10-13T19:31:44.810Z,13.35
2023-10-13T19:34:18.525Z,13.20
2023-10-13T19:36:47.186Z,14.15
2023-10-13T19:39:20.341Z,14.43
2023-10-13T19:41:50.112Z,14.35
2023-10-13T19:44:18.496Z,13.32
2023-10-13T19:46:48.999Z,14.48
2023-10-13T19:49:19.927Z,15.55
2023-10-13T19:51:48.446Z,13.70
2023-10-13T19:54:16.914Z,15.68
2023-10-13T19:56:45.279Z,15.50
2023-10-13T19:59:15.006Z,16.38
2023-10-13T20:01:43.886Z,16.02
2023-10-13T20:04:14.394Z,17.38
2023-10-13T20:06:42.763Z,17.92
2023-10-13T20:09:24.299Z,16.88
2023-10-13T20:11:53.059Z,16.00
2023-10-13T20:14:23.176Z,15.13
2023-10-13T20:16:52.242Z,13.73
2023-10-13T20:19:20.858Z,13.18
2023-10-13T20:21:49.445Z,13.30
2023-10-13T20:24:17.976Z,14.18
2023-10-13T20:26:47.012Z,14.77
2023-10-13T20:29:18.116Z,15.20
2023-10-13T20:31:49.942Z,10.77
2023-10-13T20:34:21.112Z,10.60
2023-10-13T20:36:49.765Z,10.98
2023-10-13T20:39:31.939Z,13.40
2023-10-13T20:42:05.733Z,14.30
2023-10-13T20:44:38.643Z,18.10
2023-10-13T20:47:11.969Z,17.83
2023-10-13T20:49:44.739Z,20.30
2023-10-13T20:52:13.613Z,18.02
2023-10-13T20:54:42.323Z,20.63
2023-10-13T20:57:11.925Z,20.05
2023-10-13T20:59:41.149Z,22.17
2023-10-13T21:02:12.147Z,21.95
2023-10-13T21:04:40.707Z,24.10
2023-10-13T21:07:09.368Z,23.42
2023-10-13T21:09:38.342Z,24.25
2023-10-13T21:12:07.319Z,24.52
2023-10-13T21:14:35.813Z,23.38
2023-10-13T21:17:05.538Z,23.15
2023-10-13T21:19:40.513Z,24.67
2023-10-13T21:22:11.457Z,23.67
2023-10-13T21:24:40.147Z,22.15
2023-10-13T21:27:10.189Z,20.35
2023-10-13T21:29:38.940Z,18.25
2023-10-13T21:32:09.167Z,14.27
2023-10-13T21:34:42.243Z,15.52
2023-10-13T21:37:13.133Z,14.68
2023-10-13T21:39:48.660Z,16.33
2023-10-13T21:42:17.920Z,16.88
2023-10-13T21:44:46.280Z,15.55
2023-10-13T21:47:14.586Z,16.15
2023-10-13T21:49:47.356Z,16.38
2023-10-13T21:52:17.579Z,15.25
2023-10-13T21:54:46.141Z,15.65
2023-10-13T21:57:15.117Z,16.20
2023-10-13T21:59:43.601Z,16.67
2023-10-13T22:02:11.024Z,15.63
2023-10-13T22:04:39.442Z,14.18
2023-10-13T22:07:09.347Z,13.95
2023-10-13T22:09:37.806Z,12.82
2023-10-13T22:12:07.470Z,13.32
2023-10-13T22:14:38.131Z,13.90
2023-10-13T22:17:06.559Z,13.85
2023-10-13T22:19:34.911Z,14.85
2023-10-13T22:22:03.348Z,14.52
2023-10-13T22:24:34.714Z,5.80
2023-10-13T22:27:03.176Z,1.35
2023-10-13T22:29:31.631Z,0.40
2023-10-13T22:32:00.328Z,0.30
2023-10-13T22:34:28.721Z,0.20
2023-10-13T22:37:05.908Z,0.20
2023-10-13T22:39:36.193Z,0.20
2023-10-13T22:42:05.137Z,0.22
2023-10-13T22:44:34.465Z,0.30
2023-10-13T22:47:03.143Z,0.30
2023-10-13T22:49:33.641Z,0.30
2023-10-13T22:52:02.439Z,0.38
2023-10-13T22:54:31.748Z,0.20
2023-10-13T22:57:01.613Z,0.60
2023-10-13T22:59:29.941Z,0.30
2023-10-13T23:02:00.328Z,0.30
2023-10-13T23:04:29.589Z,0.38
2023-10-13T23:07:00.546Z,0.30
2023-10-13T23:09:29.136Z,0.38
2023-10-13T23:12:05.215Z,0.10
2023-10-13T23:14:35.149Z,0.30
2023-10-13T23:17:04.081Z,0.20
2023-10-13T23:19:36.462Z,0.30
2023-10-13T23:22:07.174Z,0.17
2023-10-13T23:24:38.354Z,0.40
2023-10-13T23:27:07.183Z,0.50
2023-10-13T23:29:38.296Z,0.85
2023-10-13T23:32:06.873Z,0.65
2023-10-13T23:34:35.265Z,0.93
2023-10-13T23:37:04.769Z,0.90
2023-10-13T23:39:36.199Z,0.80
2023-10-13T23:42:08.600Z,0.60
2023-10-13T23:44:38.742Z,0.70
2023-10-13T23:47:11.480Z,0.70
2023-10-13T23:49:40.008Z,1.25
2023-10-13T23:52:09.033Z,0.70
2023-10-13T23:54:41.285Z,1.08
2023-10-13T23:57:13.506Z,1.25
2023-10-13T23:59:43.431Z,0.75
